Time;durP1;ratioP1;P1;durP2;ratioP2;P2;SDS_P1;SDS_P2;PMS_P1;PMS_P2;Temp;Humidity;BMP_temperature;BMP_pressure;BME280_temperature;BME280_humidity;BME280_pressure;Samples;Min_cycle;Max_cycle;Signal;HPM_P1;HPM_P2
2023/12/15 00:00:22;;;;;;;0.20;0.20;;;;;;;6.31;100.00;94424.38;4995169;28;20221;-78
2023/12/15 00:02:49;;;;;;;0.20;0.20;;;;;;;6.30;100.00;94428.19;4996056;28;20233;-78
2023/12/15 00:05:18;;;;;;;0.20;0.20;;;;;;;6.32;100.00;94425.97;4994983;28;20242;-79
2023/12/15 00:07:44;;;;;;;0.20;0.20;;;;;;;6.30;100.00;94428.19;4996718;28;20629;-80
2023/12/15 00:10:12;;;;;;;0.20;0.20;;;;;;;6.33;100.00;94432.97;4994768;28;20216;-77
2023/12/15 00:12:38;;;;;;;0.20;0.20;;;;;;;6.17;100.00;94423.66;4995325;28;20576;-77
2023/12/15 00:15:07;;;;;;;0.20;0.20;;;;;;;6.27;100.00;94431.50;4994542;28;20216;-76
2023/12/15 00:17:33;;;;;;;0.20;0.20;;;;;;;6.28;100.00;94435.78;4997347;28;20577;-78
2023/12/15 00:20:00;;;;;;;0.20;0.20;;;;;;;6.39;100.00;94441.72;4994520;28;20205;-79
2023/12/15 00:22:29;;;;;;;0.20;0.20;;;;;;;6.40;100.00;94437.94;4997790;28;20217;-78
2023/12/15 00:24:55;;;;;;;0.20;0.20;;;;;;;6.29;100.00;94439.25;5003143;28;20233;-77
2023/12/15 00:27:22;;;;;;;0.20;0.20;;;;;;;6.33;100.00;94445.59;5000619;28;20214;-78
2023/12/15 00:29:49;;;;;;;0.20;0.20;;;;;;;6.36;100.00;94453.88;5002385;28;20276;-77
2023/12/15 00:32:16;;;;;;;0.20;0.20;;;;;;;6.35;100.00;94457.66;5000854;28;20213;-77
2023/12/15 00:34:43;;;;;;;0.20;0.20;;;;;;;6.39;100.00;94455.97;5000858;28;20224;-78
2023/12/15 00:37:10;;;;;;;0.20;0.20;;;;;;;6.39;100.00;94453.28;4996445;28;20272;-81
2023/12/15 00:39:38;;;;;;;0.40;0.40;;;;;;;6.43;100.00;94459.59;4996841;28;20271;-79
2023/12/15 00:42:06;;;;;;;0.20;0.20;;;;;;;6.39;100.00;94455.16;4998911;28;20221;-79
2023/12/15 00:44:33;;;;;;;0.20;0.20;;;;;;;6.43;100.00;94459.59;4997843;28;20259;-80
2023/12/15 00:47:00;;;;;;;0.20;0.20;;;;;;;6.38;100.00;94461.66;4997780;28;20260;-78
2023/12/15 00:49:27;;;;;;;0.20;0.20;;;;;;;6.41;100.00;94467.22;5003602;28;20236;-79
2023/12/15 00:51:54;;;;;;;0.47;0.47;;;;;;;6.34;100.00;94482.97;5002279;28;20218;-80
2023/12/15 00:54:21;;;;;;;0.20;0.20;;;;;;;6.54;100.00;94483.59;4995673;28;20248;-79
2023/12/15 00:56:50;;;;;;;0.20;0.20;;;;;;;6.48;100.00;94488.31;4993223;28;20221;-80
2023/12/15 00:59:17;;;;;;;0.20;0.20;;;;;;;6.58;100.00;94476.50;4993261;28;20531;-79
2023/12/15 01:01:44;;;;;;;0.20;0.20;;;;;;;6.57;100.00;94496.44;4993520;28;20213;-80
2023/12/15 01:04:10;;;;;;;0.20;0.20;;;;;;;6.34;100.00;94488.34;4995932;28;20221;-82
2023/12/15 01:06:37;;;;;;;0.20;0.20;;;;;;;6.46;100.00;94489.69;4993459;28;20214;-81
2023/12/15 01:09:04;;;;;;;0.20;0.20;;;;;;;6.29;100.00;94485.75;4992743;28;20218;-82
2023/12/15 01:11:31;;;;;;;0.20;0.20;;;;;;;6.34;100.00;94482.97;4992239;28;20205;-82
2023/12/15 01:13:59;;;;;;;0.20;0.20;;;;;;;6.41;100.00;94487.94;4993729;28;20237;-80
2023/12/15 01:16:26;;;;;;;0.20;0.20;;;;;;;6.46;100.00;94478.94;4993829;28;20209;-80
2023/12/15 01:18:53;;;;;;;0.20;0.20;;;;;;;6.39;100.00;94482.88;4993260;28;20216;-79
2023/12/15 01:21:20;;;;;;;0.20;0.20;;;;;;;6.37;100.00;94477.00;4994181;28;20335;-81
2023/12/15 01:23:47;;;;;;;0.20;0.20;;;;;;;6.33;100.00;94476.00;4994163;28;20264;-80
2023/12/15 01:26:14;;;;;;;0.20;0.20;;;;;;;6.41;100.00;94488.75;4994039;28;20209;-78
2023/12/15 01:28:41;;;;;;;0.20;0.20;;;;;;;6.42;100.00;94497.59;4993618;28;20272;-82
2023/12/15 01:31:09;;;;;;;0.20;0.20;;;;;;;6.34;100.00;94509.88;4994301;28;20221;-80
2023/12/15 01:33:36;;;;;;;0.20;0.20;;;;;;;6.35;100.00;94498.00;4993825;28;20210;-79
2023/12/15 01:36:03;;;;;;;0.20;0.20;;;;;;;6.42;100.00;94500.28;4993715;28;20540;-81
2023/12/15 01:38:29;;;;;;;0.20;0.20;;;;;;;6.57;100.00;94502.59;4992719;28;20256;-81
2023/12/15 01:40:56;;;;;;;0.20;0.20;;;;;;;6.53;100.00;94503.53;4994515;28;20214;-81
2023/12/15 01:43:23;;;;;;;0.20;0.20;;;;;;;6.53;100.00;94511.63;4994576;28;20221;-80
2023/12/15 01:45:50;;;;;;;0.20;0.20;;;;;;;6.32;100.00;94501.31;4995662;28;20265;-79
2023/12/15 01:48:18;;;;;;;0.20;0.20;;;;;;;6.41;100.00;94510.25;4991015;28;20264;-79
2023/12/15 01:50:45;;;;;;;0.20;0.20;;;;;;;6.52;100.00;94516.19;4991175;28;20664;-79
2023/12/15 01:53:12;;;;;;;0.20;0.20;;;;;;;6.38;100.00;94516.25;4991730;28;20218;-82
2023/12/15 01:55:38;;;;;;;0.20;0.20;;;;;;;6.30;100.00;94522.31;4990905;28;20523;-79
2023/12/15 01:58:05;;;;;;;0.20;0.20;;;;;;;6.31;100.00;94521.22;4991580;28;20220;-81
2023/12/15 02:00:32;;;;;;;0.20;0.20;;;;;;;6.41;100.00;94515.63;4990790;28;20527;-80
2023/12/15 02:02:59;;;;;;;0.20;0.20;;;;;;;6.28;100.00;94521.84;4990400;28;20216;-79
2023/12/15 02:05:27;;;;;;;0.20;0.20;;;;;;;6.31;100.00;94507.78;4990608;28;20233;-80
2023/12/15 02:07:54;;;;;;;0.20;0.20;;;;;;;6.26;100.00;94507.13;4990916;28;20686;-80
2023/12/15 02:10:21;;;;;;;0.20;0.20;;;;;;;6.36;100.00;94518.44;4991266;28;20297;-81
2023/12/15 02:12:47;;;;;;;0.15;0.15;;;;;;;6.34;100.00;94520.63;4992226;28;20264;-80
2023/12/15 02:15:14;;;;;;;0.20;0.20;;;;;;;6.33;100.00;94519.03;4991284;28;20554;-80
2023/12/15 02:17:43;;;;;;;0.20;0.20;;;;;;;6.43;100.00;94529.56;4992579;28;20206;-80
2023/12/15 02:20:10;;;;;;;0.20;0.20;;;;;;;6.50;100.00;94528.34;4992326;28;20666;-79
2023/12/15 02:22:39;;;;;;;0.20;0.20;;;;;;;6.46;100.00;94527.38;4999494;28;20201;-78
2023/12/15 02:25:06;;;;;;;0.20;0.20;;;;;;;6.40;100.00;94530.19;5000296;28;20229;-78
2023/12/15 02:27:34;;;;;;;0.20;0.20;;;;;;;6.18;100.00;94535.50;4994463;28;20213;-80
2023/12/15 02:30:01;;;;;;;0.20;0.20;;;;;;;6.15;100.00;94538.78;4995398;28;20209;-81
2023/12/15 02:32:27;;;;;;;0.20;0.20;;;;;;;6.22;100.00;94543.78;4995079;28;20240;-80
2023/12/15 02:34:54;;;;;;;0.20;0.20;;;;;;;6.35;100.00;94543.75;4996126;28;20642;-81
2023/12/15 02:37:21;;;;;;;0.20;0.20;;;;;;;6.24;100.00;94550.44;4996696;28;20214;-79
2023/12/15 02:39:49;;;;;;;0.20;0.20;;;;;;;6.17;100.00;94547.34;4998136;28;20693;-80
2023/12/15 02:42:16;;;;;;;0.20;0.20;;;;;;;6.21;100.00;94542.19;4996671;28;20570;-77
2023/12/15 02:44:44;;;;;;;0.25;0.25;;;;;;;6.28;100.00;94551.44;4999240;28;20233;-80
2023/12/15 02:47:11;;;;;;;0.30;0.20;;;;;;;6.15;100.00;94544.16;4998442;28;20221;-79
2023/12/15 02:49:39;;;;;;;0.20;0.20;;;;;;;6.23;100.00;94558.81;4994384;28;20210;-80
2023/12/15 02:52:06;;;;;;;0.20;0.20;;;;;;;6.29;100.00;94558.38;4994259;28;20221;-80
2023/12/15 02:54:33;;;;;;;0.20;0.20;;;;;;;6.36;100.00;94566.84;4994610;28;20228;-80
2023/12/15 02:57:01;;;;;;;0.20;0.20;;;;;;;6.29;100.00;94554.91;4994332;28;20217;-80
2023/12/15 02:59:28;;;;;;;0.30;0.30;;;;;;;6.27;100.00;94563.28;4994321;28;20217;-80
2023/12/15 03:01:55;;;;;;;0.20;0.20;;;;;;;6.20;100.00;94562.91;4994442;28;20578;-81
2023/12/15 03:04:22;;;;;;;0.20;0.20;;;;;;;6.24;100.00;94574.66;4994041;28;20221;-79
2023/12/15 03:06:48;;;;;;;0.15;0.15;;;;;;;6.28;100.00;94581.03;4994281;28;20213;-79
2023/12/15 03:09:15;;;;;;;0.55;0.30;;;;;;;6.26;100.00;94583.22;4994098;28;20260;-80
2023/12/15 03:11:42;;;;;;;0.28;0.28;;;;;;;6.20;100.00;94579.03;4993968;28;20288;-81
2023/12/15 03:14:10;;;;;;;0.20;0.20;;;;;;;6.19;100.00;94582.81;4994330;28;20218;-81
2023/12/15 03:16:37;;;;;;;0.20;0.20;;;;;;;6.23;100.00;94583.81;4993446;28;20217;-81
2023/12/15 03:19:04;;;;;;;0.20;0.20;;;;;;;6.20;100.00;94584.41;4994192;28;20224;-82
2023/12/15 03:21:31;;;;;;;0.50;0.50;;;;;;;6.19;100.00;94582.81;4987920;28;20217;-82
2023/12/15 03:23:58;;;;;;;0.20;0.20;;;;;;;6.20;100.00;94581.72;4986672;28;20541;-81
2023/12/15 03:26:24;;;;;;;0.40;0.40;;;;;;;6.31;100.00;94587.69;4984671;28;20225;-80
2023/12/15 03:28:52;;;;;;;0.20;0.20;;;;;;;6.23;100.00;94586.50;4985245;28;20236;-80
2023/12/15 03:31:21;;;;;;;0.20;0.20;;;;;;;6.25;100.00;94592.38;4985682;28;20229;-81
2023/12/15 03:33:47;;;;;;;0.20;0.20;;;;;;;6.13;100.00;94594.78;4986498;28;20210;-80
2023/12/15 03:36:14;;;;;;;0.20;0.20;;;;;;;6.22;100.00;94598.38;4985836;28;20592;-80
2023/12/15 03:38:41;;;;;;;0.57;0.57;;;;;;;6.31;100.00;94596.53;4983399;28;20230;-83
2023/12/15 03:41:08;;;;;;;1.83;0.50;;;;;;;6.30;100.00;94589.56;4987283;28;20228;-83
2023/12/15 03:43:35;;;;;;;0.20;0.20;;;;;;;6.18;100.00;94585.81;4986312;28;20548;-83
2023/12/15 03:46:02;;;;;;;0.98;0.95;;;;;;;6.16;100.00;94591.47;4984502;28;20325;-83
2023/12/15 03:48:30;;;;;;;0.15;0.15;;;;;;;6.16;100.00;94596.84;4984684;28;20290;-82
2023/12/15 03:50:57;;;;;;;0.20;0.20;;;;;;;6.25;100.00;94603.16;4983486;28;20194;-80
2023/12/15 03:53:24;;;;;;;0.30;0.30;;;;;;;6.22;100.00;94597.56;4982567;28;20675;-79
2023/12/15 03:55:51;;;;;;;0.20;0.20;;;;;;;6.17;100.00;94603.03;4992777;28;20209;-78
2023/12/15 03:58:17;;;;;;;0.20;0.20;;;;;;;6.08;100.00;94602.94;4993003;28;20224;-78
2023/12/15 04:00:44;;;;;;;0.80;0.47;;;;;;;6.10;100.00;94603.44;4989804;28;20217;-79
2023/12/15 04:03:11;;;;;;;0.20;0.20;;;;;;;6.12;100.00;94619.28;4992846;28;20226;-78
2023/12/15 04:05:39;;;;;;;0.55;0.55;;;;;;;6.42;100.00;94613.28;4992975;28;20233;-78
2023/12/15 04:08:06;;;;;;;0.57;0.57;;;;;;;6.27;100.00;94611.72;4992839;28;20209;-79
2023/12/15 04:10:33;;;;;;;0.28;0.28;;;;;;;6.21;100.00;94620.97;4992426;28;20598;-80
2023/12/15 04:13:00;;;;;;;0.20;0.20;;;;;;;6.11;100.00;94618.50;4993241;28;20213;-79
2023/12/15 04:15:27;;;;;;;0.20;0.20;;;;;;;6.36;100.00;94611.78;4992894;28;20729;-76
2023/12/15 04:17:53;;;;;;;0.60;0.60;;;;;;;6.93;100.00;94618.34;4992728;28;20316;-79
2023/12/15 04:20:20;;;;;;;0.20;0.20;;;;;;;6.74;100.00;94615.78;4992257;28;20573;-77
2023/12/15 04:22:49;;;;;;;0.50;0.50;;;;;;;7.30;100.00;94622.56;4983616;28;20216;-77
2023/12/15 04:25:16;;;;;;;0.38;0.38;;;;;;;6.60;100.00;94625.00;4987647;28;20226;-82
2023/12/15 04:27:42;;;;;;;0.85;0.65;;;;;;;6.41;100.00;94615.19;4986581;28;20206;-83
2023/12/15 04:30:10;;;;;;;0.50;0.50;;;;;;;6.32;100.00;94625.03;4985254;28;20220;-80
2023/12/15 04:32:37;;;;;;;0.30;0.30;;;;;;;6.14;100.00;94615.22;4987154;28;20202;-80
2023/12/15 04:35:05;;;;;;;0.32;0.32;;;;;;;6.36;100.00;94620.66;4988175;28;20213;-82
2023/12/15 04:37:31;;;;;;;0.20;0.20;;;;;;;6.20;100.00;94622.06;4990710;28;20207;-82
2023/12/15 04:39:59;;;;;;;0.40;0.40;;;;;;;6.30;100.00;94638.00;4986274;28;20234;-82
2023/12/15 04:42:27;;;;;;;0.43;0.43;;;;;;;6.26;100.00;94631.63;4985748;28;20563;-79
2023/12/15 04:44:55;;;;;;;0.20;0.20;;;;;;;6.17;100.00;94630.72;4986321;28;20284;-81
2023/12/15 04:47:21;;;;;;;0.20;0.20;;;;;;;6.13;100.00;94642.41;4987875;28;20203;-81
2023/12/15 04:49:48;;;;;;;0.20;0.20;;;;;;;6.16;100.00;94641.78;4981313;28;20218;-80
2023/12/15 04:52:15;;;;;;;0.43;0.43;;;;;;;6.11;100.00;94645.38;4981054;28;20217;-78
2023/12/15 04:54:42;;;;;;;0.20;0.20;;;;;;;6.06;100.00;94654.34;4983333;28;20654;-77
2023/12/15 04:57:11;;;;;;;0.32;0.32;;;;;;;6.14;100.00;94666.31;4987857;28;20555;-81
2023/12/15 04:59:39;;;;;;;0.75;0.75;;;;;;;6.11;100.00;94666.91;4984334;28;20198;-81
2023/12/15 05:02:07;;;;;;;0.20;0.20;;;;;;;6.20;100.00;94665.09;4985114;28;20572;-80
2023/12/15 05:04:34;;;;;;;0.95;0.55;;;;;;;6.13;100.00;94662.03;4967813;28;20205;-81
2023/12/15 05:07:02;;;;;;;0.20;0.20;;;;;;;6.13;100.00;94664.72;4983766;28;20262;-80
2023/12/15 05:09:29;;;;;;;0.47;0.47;;;;;;;6.20;100.00;94659.72;4985396;28;20213;-80
2023/12/15 05:11:56;;;;;;;0.30;0.30;;;;;;;6.25;100.00;94667.69;4989284;28;20225;-79
2023/12/15 05:14:24;;;;;;;0.95;0.35;;;;;;;6.26;100.00;94671.97;4991762;28;20214;-81
2023/12/15 05:16:51;;;;;;;0.57;0.57;;;;;;;6.25;100.00;94672.28;4991491;28;20221;-79
2023/12/15 05:19:18;;;;;;;0.30;0.30;;;;;;;6.20;100.00;94665.09;4990788;28;20213;-80
2023/12/15 05:21:44;;;;;;;0.50;0.50;;;;;;;6.20;100.00;94669.69;4990190;28;20216;-79
2023/12/15 05:24:11;;;;;;;0.73;0.73;;;;;;;6.17;100.00;94681.81;4991495;28;20845;-80
2023/12/15 05:26:38;;;;;;;0.20;0.20;;;;;;;6.26;100.00;94677.38;4990921;28;20248;-79
2023/12/15 05:29:25;;;;;;;0.20;0.20;;;;;;;6.10;100.00;94681.44;4991796;28;20233;-81
2023/12/15 05:31:52;;;;;;;0.20;0.20;;;;;;;6.12;100.00;94697.28;4991259;28;20232;-80
2023/12/15 05:34:19;;;;;;;0.88;0.85;;;;;;;6.12;100.00;94690.00;4991409;28;20210;-81
2023/12/15 05:36:46;;;;;;;0.20;0.20;;;;;;;6.26;100.00;94700.78;4990633;28;20209;-81
2023/12/15 05:39:14;;;;;;;0.30;0.30;;;;;;;6.23;100.00;94704.84;4991002;28;20343;-80
2023/12/15 05:41:42;;;;;;;0.20;0.20;;;;;;;6.16;100.00;94715.19;4991221;28;21005;-81
2023/12/15 05:44:09;;;;;;;0.17;0.17;;;;;;;6.12;100.00;94714.22;4991397;28;20670;-82
2023/12/15 05:46:42;;;;;;;1.88;0.80;;;;;;;6.09;100.00;94717.47;4990547;28;20328;-81
2023/12/15 05:49:10;;;;;;;0.63;0.50;;;;;;;6.07;100.00;94714.28;4991279;28;20224;-80
2023/12/15 05:51:37;;;;;;;0.30;0.30;;;;;;;6.02;100.00;94722.44;4990584;28;20344;-80
2023/12/15 05:54:04;;;;;;;0.20;0.20;;;;;;;6.16;100.00;94734.00;4991192;28;20603;-81
2023/12/15 05:56:31;;;;;;;0.43;0.40;;;;;;;6.07;100.00;94720.47;4990597;28;20201;-81
2023/12/15 05:58:58;;;;;;;0.22;0.22;;;;;;;6.05;100.00;94711.09;4991475;28;20209;-83
2023/12/15 06:01:25;;;;;;;0.20;0.20;;;;;;;6.15;100.00;94723.59;4991099;28;20324;-81
2023/12/15 06:03:53;;;;;;;0.20;0.20;;;;;;;6.11;100.00;94733.31;4991666;28;20672;-82
2023/12/15 06:06:20;;;;;;;0.50;0.50;;;;;;;6.14;100.00;94730.84;4990633;28;20264;-81
2023/12/15 06:08:47;;;;;;;0.35;0.35;;;;;;;6.04;100.00;94737.19;4991584;28;20249;-81
2023/12/15 06:11:14;;;;;;;0.30;0.30;;;;;;;5.99;100.00;94729.22;4991221;28;20210;-81
2023/12/15 06:13:41;;;;;;;0.95;0.95;;;;;;;6.05;100.00;94728.03;4991016;28;20205;-79
2023/12/15 06:16:09;;;;;;;0.22;0.22;;;;;;;6.05;100.00;94751.44;4991479;28;20240;-82
2023/12/15 06:18:36;;;;;;;0.20;0.20;;;;;;;6.01;100.00;94737.00;4991986;28;20605;-83
2023/12/15 06:21:04;;;;;;;0.30;0.30;;;;;;;6.15;100.00;94737.78;4991441;28;20210;-81
2023/12/15 06:23:31;;;;;;;0.20;0.20;;;;;;;6.15;100.00;94745.09;4990524;28;20210;-81
2023/12/15 06:25:58;;;;;;;0.20;0.20;;;;;;;6.21;100.00;94747.38;4990913;28;20237;-80
2023/12/15 06:28:25;;;;;;;0.63;0.63;;;;;;;6.03;100.00;94751.72;4990804;28;20233;-82
2023/12/15 06:30:52;;;;;;;0.25;0.25;;;;;;;6.10;100.00;94754.03;4990826;28;20209;-83
2023/12/15 06:33:19;;;;;;;1.05;0.95;;;;;;;6.20;100.00;94767.31;4990646;28;20198;-82
2023/12/15 06:35:46;;;;;;;0.35;0.35;;;;;;;6.18;100.00;94758.72;4990779;28;20233;-82
2023/12/15 06:38:15;;;;;;;0.40;0.40;;;;;;;6.01;100.00;94758.50;4990537;28;20233;-82
2023/12/15 06:40:42;;;;;;;0.32;0.30;;;;;;;5.87;100.00;94771.88;4990728;28;20208;-82
2023/12/15 06:43:08;;;;;;;0.52;0.52;;;;;;;5.88;100.00;94767.28;4990768;28;20225;-80
2023/12/15 06:45:38;;;;;;;0.25;0.25;;;;;;;5.99;100.00;94768.75;4990655;28;20222;-80
2023/12/15 06:48:05;;;;;;;0.20;0.20;;;;;;;5.81;100.00;94764.19;4990775;28;20217;-84
2023/12/15 06:50:32;;;;;;;0.60;0.60;;;;;;;5.93;100.00;94786.84;4990200;28;20209;-83
2023/12/15 06:52:59;;;;;;;0.20;0.20;;;;;;;5.87;100.00;94781.84;4990948;28;20228;-80
2023/12/15 06:55:27;;;;;;;0.30;0.30;;;;;;;6.01;100.00;94780.03;4990669;28;20561;-82
2023/12/15 06:57:54;;;;;;;0.20;0.20;;;;;;;6.10;100.00;94783.63;4990675;28;20703;-82
2023/12/15 07:00:21;;;;;;;0.20;0.20;;;;;;;6.09;100.00;94791.97;4990791;28;20214;-82
2023/12/15 07:02:48;;;;;;;0.52;0.52;;;;;;;6.13;100.00;94791.09;4990425;28;20214;-83
2023/12/15 07:05:14;;;;;;;0.93;0.63;;;;;;;6.18;100.00;94807.13;4990642;28;20304;-83
2023/12/15 07:07:41;;;;;;;0.22;0.22;;;;;;;6.23;100.00;94807.06;4990002;28;20257;-82
2023/12/15 07:10:08;;;;;;;0.20;0.20;;;;;;;6.11;100.00;94812.13;4994211;28;20860;-82
2023/12/15 07:12:37;;;;;;;0.30;0.30;;;;;;;6.21;100.00;94811.94;4993790;28;20272;-82
2023/12/15 07:15:04;;;;;;;0.50;0.50;;;;;;;6.16;100.00;94817.38;4993692;28;20603;-81
2023/12/15 07:17:31;;;;;;;0.20;0.20;;;;;;;6.15;100.00;94810.41;4993642;28;20246;-82
2023/12/15 07:19:58;;;;;;;0.60;0.60;;;;;;;6.24;100.00;94827.50;4994110;28;20646;-83
2023/12/15 07:22:25;;;;;;;0.20;0.20;;;;;;;6.00;100.00;94816.06;4982463;28;20234;-81
2023/12/15 07:24:52;;;;;;;0.30;0.30;;;;;;;6.07;100.00;94819.97;4981864;28;20205;-81
2023/12/15 07:27:18;;;;;;;0.28;0.28;;;;;;;6.06;100.00;94814.88;4986581;28;20624;-83
2023/12/15 07:29:47;;;;;;;1.15;1.08;;;;;;;5.98;100.00;94819.03;4990710;28;20970;-82
2023/12/15 07:32:14;;;;;;;0.75;0.75;;;;;;;6.04;100.00;94817.84;4985028;28;20218;-80
2023/12/15 07:34:40;;;;;;;0.20;0.20;;;;;;;6.00;100.00;94818.75;4980672;28;20214;-81
2023/12/15 07:37:07;;;;;;;0.38;0.38;;;;;;;6.09;100.00;94824.25;4993398;28;20213;-82
2023/12/15 07:39:36;;;;;;;0.20;0.20;;;;;;;6.31;100.00;94829.78;4991191;28;20299;-83
2023/12/15 07:42:04;;;;;;;0.90;0.85;;;;;;;6.32;100.00;94828.69;4993352;28;20220;-82
2023/12/15 07:44:33;;;;;;;0.20;0.20;;;;;;;6.30;100.00;94837.06;4991867;28;20199;-81
2023/12/15 07:47:02;;;;;;;0.30;0.30;;;;;;;6.20;100.00;94836.44;4993548;28;20729;-83
2023/12/15 07:49:30;;;;;;;0.20;0.20;;;;;;;6.20;100.00;94842.59;4992442;28;20213;-81
2023/12/15 07:51:56;;;;;;;0.20;0.20;;;;;;;6.28;100.00;94850.03;4993510;28;20228;-82
2023/12/15 07:54:23;;;;;;;0.70;0.60;;;;;;;6.08;100.00;94844.97;4993084;28;20202;-82
2023/12/15 07:56:50;;;;;;;0.47;0.47;;;;;;;6.17;100.00;94859.31;4992683;28;20225;-82
2023/12/15 07:59:17;;;;;;;0.35;0.28;;;;;;;6.07;100.00;94851.44;4993195;28;20214;-81
2023/12/15 08:01:50;;;;;;;0.20;0.20;;;;;;;6.17;100.00;94856.63;4992696;28;20209;-79
2023/12/15 08:04:19;;;;;;;0.43;0.43;;;;;;;6.16;100.00;94867.69;4993712;28;20663;-82
2023/12/15 08:06:46;;;;;;;0.50;0.50;;;;;;;6.11;100.00;94876.66;4992612;28;20288;-83
2023/12/15 08:09:13;;;;;;;0.30;0.30;;;;;;;6.21;100.00;94892.63;4993147;28;20561;-81
2023/12/15 08:11:40;;;;;;;0.20;0.20;;;;;;;6.09;100.00;94892.28;4984719;28;20212;-81
2023/12/15 08:14:06;;;;;;;0.40;0.40;;;;;;;6.29;100.00;94900.00;4992095;28;20574;-80
2023/12/15 08:16:34;;;;;;;0.20;0.20;;;;;;;6.22;100.00;94894.22;4975444;28;20217;-81
2023/12/15 08:19:03;;;;;;;0.30;0.30;;;;;;;6.18;100.00;94898.59;4992751;28;20214;-80
2023/12/15 08:21:31;;;;;;;0.20;0.20;;;;;;;6.47;100.00;94894.91;4992531;28;20233;-83
2023/12/15 08:23:58;;;;;;;0.20;0.20;;;;;;;6.39;100.00;94905.25;4993216;28;20241;-80
2023/12/15 08:26:27;;;;;;;0.43;0.43;;;;;;;6.20;100.00;94885.66;5003826;28;20225;-82
2023/12/15 08:28:54;;;;;;;0.40;0.32;;;;;;;6.28;100.00;94898.44;4980026;28;20300;-81
2023/12/15 08:31:21;;;;;;;0.20;0.20;;;;;;;6.27;100.00;94902.22;4992854;28;20213;-81
2023/12/15 08:33:48;;;;;;;0.20;0.20;;;;;;;6.21;100.00;94898.00;4992987;28;20574;-81
2023/12/15 08:36:15;;;;;;;0.20;0.20;;;;;;;6.28;100.00;94897.66;4992822;28;20236;-81
2023/12/15 08:38:43;;;;;;;0.30;0.30;;;;;;;6.32;100.00;94904.81;4992075;28;20332;-82
2023/12/15 08:41:11;;;;;;;0.45;0.45;;;;;;;6.40;100.00;94901.47;4992682;28;20216;-81
2023/12/15 08:43:38;;;;;;;0.20;0.20;;;;;;;6.52;100.00;94908.28;4991886;28;20225;-82
2023/12/15 08:46:06;;;;;;;0.20;0.20;;;;;;;6.35;100.00;94906.91;4992113;28;20305;-83
2023/12/15 08:48:32;;;;;;;0.13;0.13;;;;;;;6.49;100.00;94909.66;4991934;28;20225;-81
2023/12/15 08:50:59;;;;;;;0.82;0.82;;;;;;;6.52;100.00;94909.06;4992300;28;20209;-82
2023/12/15 08:53:26;;;;;;;0.75;0.75;;;;;;;6.55;100.00;94913.06;4992214;28;20221;-81
2023/12/15 08:55:55;;;;;;;0.47;0.47;;;;;;;6.55;100.00;94913.06;4992250;28;20205;-82
2023/12/15 08:58:21;;;;;;;0.30;0.20;;;;;;;6.60;100.00;94905.69;4992302;28;20674;-81
2023/12/15 09:00:48;;;;;;;0.20;0.20;;;;;;;6.43;100.00;94910.81;4991989;28;20218;-81
2023/12/15 09:03:15;;;;;;;0.43;0.43;;;;;;;6.39;100.00;94910.63;4991691;28;20301;-81
2023/12/15 09:05:42;;;;;;;0.43;0.43;;;;;;;6.47;100.00;94905.66;4991691;28;20205;-82
2023/12/15 09:08:09;;;;;;;0.22;0.22;;;;;;;6.68;100.00;94906.94;4991251;28;20268;-82
2023/12/15 09:10:42;;;;;;;0.70;0.70;;;;;;;6.42;100.00;94910.03;4991699;28;20721;-83
2023/12/15 09:13:10;;;;;;;0.45;0.45;;;;;;;6.55;100.00;94905.81;4992129;28;20620;-83
2023/12/15 09:15:37;;;;;;;1.98;0.63;;;;;;;6.68;100.00;94902.34;4991672;28;20206;-81
2023/12/15 09:18:04;;;;;;;0.40;0.40;;;;;;;6.59;100.00;94905.97;4991621;28;20673;-81
2023/12/15 09:20:31;;;;;;;0.22;0.22;;;;;;;6.77;100.00;94905.13;4991435;28;20209;-81
2023/12/15 09:22:58;;;;;;;1.35;0.95;;;;;;;6.82;100.00;94896.97;4991613;28;20226;-82
2023/12/15 09:25:25;;;;;;;0.30;0.30;;;;;;;6.75;100.00;94896.56;4991702;28;20210;-82
2023/12/15 09:27:51;;;;;;;0.73;0.73;;;;;;;6.65;100.00;94907.50;4991106;28;20232;-81
2023/12/15 09:30:20;;;;;;;0.30;0.30;;;;;;;6.66;100.00;94898.34;4992332;28;20683;-81
2023/12/15 09:32:46;;;;;;;0.43;0.43;;;;;;;6.74;100.00;94903.03;4990806;28;20206;-82
2023/12/15 09:35:13;;;;;;;0.63;0.63;;;;;;;6.80;100.00;94906.44;4991383;28;20213;-81
2023/12/15 09:37:40;;;;;;;0.52;0.50;;;;;;;6.70;100.00;94899.31;4973374;28;20224;-81
2023/12/15 09:40:08;;;;;;;0.30;0.30;;;;;;;6.77;100.00;94905.13;4991013;28;20710;-81
2023/12/15 09:42:35;;;;;;;0.40;0.40;;;;;;;6.73;100.00;94893.34;4991074;28;20213;-82
2023/12/15 09:45:03;;;;;;;1.20;1.17;;;;;;;6.62;100.00;94903.50;4991405;28;20215;-82
2023/12/15 09:47:32;;;;;;;0.32;0.32;;;;;;;6.77;100.00;94902.44;4990990;28;20233;-77
2023/12/15 09:50:05;;;;;;;0.73;0.73;;;;;;;6.79;100.00;94902.94;4991908;28;20241;-83
2023/12/15 09:52:33;;;;;;;0.30;0.30;;;;;;;6.83;100.00;94901.28;4991188;28;20292;-83
2023/12/15 09:55:00;;;;;;;2.20;0.57;;;;;;;6.87;100.00;94893.38;4991087;28;20245;-82
2023/12/15 09:57:28;;;;;;;0.30;0.30;;;;;;;7.16;100.00;94906.56;4991380;28;20648;-82
2023/12/15 09:59:56;;;;;;;0.20;0.20;;;;;;;7.12;100.00;94911.75;4991705;28;20217;-82
2023/12/15 10:02:23;;;;;;;0.57;0.57;;;;;;;7.35;100.00;94915.38;4991195;28;20583;-81
2023/12/15 10:04:51;;;;;;;0.43;0.43;;;;;;;7.27;100.00;94907.97;4991095;28;20663;-82
2023/12/15 10:07:18;;;;;;;0.80;0.80;;;;;;;7.44;100.00;94892.00;4990712;28;20226;-81
2023/12/15 10:09:45;;;;;;;1.58;1.48;;;;;;;7.01;100.00;94895.00;4991230;28;20225;-79
2023/12/15 10:12:12;;;;;;;0.40;0.40;;;;;;;6.92;100.00;94912.16;4990958;28;20218;-81
2023/12/15 10:14:40;;;;;;;3.38;1.50;;;;;;;7.00;100.00;94909.56;4991141;28;20214;-84
2023/12/15 10:17:10;;;;;;;0.73;0.73;;;;;;;7.30;100.00;94918.16;4991536;28;20222;-83
2023/12/15 10:19:37;;;;;;;0.20;0.20;;;;;;;6.92;100.00;94918.34;4991213;28;20588;-82
2023/12/15 10:22:07;;;;;;;0.47;0.47;;;;;;;7.08;100.00;94916.97;4991262;28;20574;-85
2023/12/15 10:24:35;;;;;;;0.43;0.43;;;;;;;7.08;100.00;94921.53;4990838;28;20217;-82
2023/12/15 10:27:03;;;;;;;1.02;0.52;;;;;;;6.99;100.00;94926.00;4990753;28;20256;-82
2023/12/15 10:29:31;;;;;;;0.50;0.50;;;;;;;7.14;100.00;94921.13;4990816;28;20264;-82
2023/12/15 10:31:58;;;;;;;0.65;0.65;;;;;;;7.35;100.00;94920.75;4990735;28;20605;-82
2023/12/15 10:34:26;;;;;;;0.40;0.40;;;;;;;7.38;100.00;94920.16;4991041;28;20218;-81
2023/12/15 10:36:53;;;;;;;0.73;0.73;;;;;;;7.44;100.00;94918.94;4990288;28;20582;-82
2023/12/15 10:39:24;;;;;;;1.40;1.30;;;;;;;7.55;100.00;94920.34;4990540;28;20241;-83
2023/12/15 10:41:51;;;;;;;1.65;0.52;;;;;;;7.50;100.00;94920.47;4978466;28;20288;-81
2023/12/15 10:44:21;;;;;;;1.08;0.93;;;;;;;7.67;100.00;94912.53;4993296;28;20237;-82
2023/12/15 10:46:47;;;;;;;0.60;0.60;;;;;;;7.62;100.00;94914.56;4994187;28;20218;-83
2023/12/15 10:49:15;;;;;;;0.30;0.30;;;;;;;7.50;100.00;94928.53;4994451;28;20236;-83
2023/12/15 10:51:43;;;;;;;0.30;0.30;;;;;;;7.56;100.00;94927.31;4994576;28;20287;-82
2023/12/15 10:54:10;;;;;;;0.98;0.93;;;;;;;7.59;100.00;94932.13;4994317;28;20347;-84
2023/12/15 10:56:39;;;;;;;0.90;0.90;;;;;;;7.71;100.00;94935.09;4994287;28;20217;-83
2023/12/15 10:59:06;;;;;;;0.30;0.30;;;;;;;7.70;100.00;94943.50;4994489;28;20221;-82
2023/12/15 11:01:36;;;;;;;0.75;0.75;;;;;;;7.79;100.00;94937.06;4994607;28;20209;-82
2023/12/15 11:04:03;;;;;;;0.25;0.25;;;;;;;7.71;100.00;94940.50;4994560;28;20225;-83
2023/12/15 11:06:32;;;;;;;0.38;0.38;;;;;;;7.54;100.00;94940.31;4994605;28;20217;-84
2023/12/15 11:09:04;;;;;;;0.50;0.50;;;;;;;7.62;100.00;94938.81;4994094;28;20245;-81
2023/12/15 11:11:31;;;;;;;1.38;0.57;;;;;;;7.65;100.00;94930.94;4994514;28;20638;-85
2023/12/15 11:14:02;;;;;;;1.25;1.15;;;;;;;7.68;100.00;94935.69;4994285;28;20611;-82
2023/12/15 11:16:30;;;;;;;0.45;0.45;;;;;;;7.58;100.00;94941.31;4994242;28;20205;-81
2023/12/15 11:18:59;;;;;;;1.27;0.52;;;;;;;7.06;100.00;94938.00;4993983;28;20213;-82
2023/12/15 11:21:26;;;;;;;0.45;0.35;;;;;;;6.73;100.00;94942.63;4994215;28;20217;-82
2023/12/15 11:23:58;;;;;;;0.50;0.50;;;;;;;6.83;100.00;94952.44;4993539;28;20228;-82
2023/12/15 11:26:32;;;;;;;0.65;0.65;;;;;;;7.13;100.00;94949.16;4993801;28;20210;-82
2023/12/15 11:29:06;;;;;;;0.22;0.22;;;;;;;7.39;100.00;94949.47;4994040;28;20232;-85
2023/12/15 11:31:34;;;;;;;0.20;0.20;;;;;;;7.56;100.00;94951.59;4994235;28;20653;-82
2023/12/15 11:34:03;;;;;;;0.43;0.43;;;;;;;7.63;100.00;94965.47;4985219;28;20226;-82